Skip Navigation LinksHome page > Weather > Current weather Skip Navigation Links

Current Weather

Jacobshavn Lufthavn, Greenland

For information only: do not use for flight planning or navigation.
Latest weather
Observation time Friday, January 28, 2022 12:50 AM AST
Local time Friday, January 28, 2022 1:05 AM AST
Flight conditions Conditions unknown
Winds
Wind direction East (100°)
Wind speed 23 mph
Sky condition
Ceiling unlimited
Temperature 3°F
Dewpoint -6°F
Altimeter 29.74 in.Hg
Derived measurements
Relative humidity 65%
Wind chill -19°F
Density altitude -3662 ft.
Remarks
Fully automated report.
METAR BGJN 280450Z AUTO 10020KT //// NCD M16/M21 Q1007

Settings

Location code

InnerDrive.Weather 4.0.6770.0 Release CLR 4.0.30319.42000
Copyright ©2018 Inner Drive Technology. All rights reserved. Portions Copyright ©1986-2018 David Braverman.

Find weather

Site navigation


Skip Navigation Links

Place info

Page info

PayPal - The safer, easier way to pay online!

Return home.

Copyright ©2022 Inner Drive Technology. Purveyors of fine, hand-crafted computer software. Page printed 2022-01-28T05:05:20 UTC.